createdAt,value
2023-03-18T00:00:21.013Z,48.58
2023-03-18T00:02:48.559Z,50.70
2023-03-18T00:05:15.694Z,55.50
2023-03-18T00:07:43.097Z,46.20
2023-03-18T00:10:12.063Z,52.22
2023-03-18T00:12:41.545Z,53.22
2023-03-18T00:15:12.512Z,50.78
2023-03-18T00:17:41.281Z,47.10
2023-03-18T00:20:10.033Z,52.20
2023-03-18T00:22:38.038Z,51.33
2023-03-18T00:25:07.818Z,50.88
2023-03-18T00:27:40.004Z,56.35
2023-03-18T00:30:08.068Z,50.97
2023-03-18T00:32:37.304Z,53.50
2023-03-18T00:35:04.964Z,60.50
2023-03-18T00:37:33.437Z,52.90
2023-03-18T00:40:06.524Z,60.90
2023-03-18T00:42:40.160Z,59.83
2023-03-18T00:45:11.025Z,54.58
2023-03-18T00:47:38.678Z,56.65
2023-03-18T00:50:08.577Z,53.58
2023-03-18T00:52:36.422Z,59.45
2023-03-18T00:55:05.043Z,63.35
2023-03-18T00:57:32.223Z,64.03
2023-03-18T00:59:59.662Z,60.00
2023-03-18T01:02:30.716Z,67.35
2023-03-18T01:04:57.975Z,73.78
2023-03-18T01:07:25.611Z,67.75
2023-03-18T01:09:55.369Z,71.25
2023-03-18T01:12:22.847Z,68.07
2023-03-18T01:14:49.877Z,71.18
2023-03-18T01:17:16.912Z,78.15
2023-03-18T01:19:44.550Z,69.30
2023-03-18T01:22:11.521Z,79.45
2023-03-18T01:24:45.131Z,74.18
2023-03-18T01:27:12.968Z,70.40
2023-03-18T01:29:42.203Z,73.72
2023-03-18T01:32:16.144Z,71.53
2023-03-18T01:34:44.242Z,76.55
2023-03-18T01:37:11.688Z,74.32
2023-03-18T01:39:41.242Z,75.88
2023-03-18T01:42:18.089Z,72.22
2023-03-18T01:44:46.549Z,67.43
2023-03-18T01:47:16.636Z,65.65
2023-03-18T01:49:52.392Z,61.67
2023-03-18T01:52:27.131Z,56.80
2023-03-18T01:54:59.657Z,50.47
2023-03-18T01:57:30.167Z,51.42
2023-03-18T02:02:26.257Z,51.15
2023-03-18T02:04:56.551Z,54.00
2023-03-18T02:07:27.970Z,52.60
2023-03-18T02:10:00.025Z,49.10
2023-03-18T02:12:36.919Z,53.75
2023-03-18T02:15:12.082Z,56.08
2023-03-18T02:17:43.211Z,52.40
2023-03-18T02:20:27.857Z,48.72
2023-03-18T02:23:07.045Z,44.88
2023-03-18T02:25:39.253Z,46.33
2023-03-18T02:28:10.700Z,48.42
2023-03-18T02:30:41.864Z,44.95
2023-03-18T02:33:11.913Z,48.85
2023-03-18T02:35:40.162Z,46.83
2023-03-18T02:38:07.193Z,48.90
2023-03-18T02:40:37.703Z,45.05
2023-03-18T02:43:27.521Z,46.10
2023-03-18T02:46:31.523Z,45.85
2023-03-18T02:49:01.834Z,49.03
2023-03-18T02:51:30.589Z,52.60
2023-03-18T02:54:04.738Z,52.65
2023-03-18T02:56:31.997Z,57.75
2023-03-18T02:59:00.562Z,56.83
2023-03-18T03:03:57.214Z,60.88
2023-03-18T03:06:25.483Z,62.65
2023-03-18T03:08:52.436Z,63.00
2023-03-18T03:11:22.000Z,61.53
2023-03-18T03:13:51.258Z,62.15
2023-03-18T03:16:20.133Z,65.93
2023-03-18T03:18:47.587Z,59.08
2023-03-18T03:21:15.418Z,58.22
2023-03-18T03:23:43.987Z,63.13
2023-03-18T03:26:11.754Z,61.35
2023-03-18T03:28:38.798Z,57.10
2023-03-18T03:31:06.878Z,61.40
2023-03-18T03:33:36.699Z,56.35
2023-03-18T03:36:04.054Z,63.08
2023-03-18T03:38:31.826Z,63.33
2023-03-18T03:40:58.780Z,62.28
2023-03-18T03:43:25.956Z,63.22
2023-03-18T03:45:53.029Z,61.33
2023-03-18T03:48:19.829Z,61.97
2023-03-18T03:50:47.740Z,61.58
2023-03-18T03:53:14.779Z,60.97
2023-03-18T03:55:41.808Z,57.47
2023-03-18T03:58:09.585Z,64.40
2023-03-18T04:00:38.290Z,59.95
2023-03-18T04:03:05.815Z,68.45
2023-03-18T04:05:33.197Z,55.92
2023-03-18T04:08:01.215Z,58.70
2023-03-18T04:10:36.724Z,51.88
2023-03-18T04:13:06.434Z,53.40
2023-03-18T04:15:34.309Z,53.85
2023-03-18T04:18:08.268Z,53.38
2023-03-18T04:20:37.973Z,53.17
2023-03-18T04:23:11.350Z,53.55
2023-03-18T04:25:38.346Z,58.50
2023-03-18T04:28:05.349Z,47.28
2023-03-18T04:30:51.743Z,47.90
2023-03-18T04:33:21.200Z,52.20
2023-03-18T04:35:49.053Z,49.35
2023-03-18T04:38:18.773Z,39.58
2023-03-18T04:40:48.202Z,43.15
2023-03-18T04:43:15.404Z,41.17
2023-03-18T04:45:43.752Z,40.47
2023-03-18T04:48:11.453Z,41.42
2023-03-18T04:50:41.136Z,40.30
2023-03-18T04:53:12.373Z,38.38
2023-03-18T04:55:40.161Z,39.72
2023-03-18T04:58:09.265Z,38.35
2023-03-18T05:00:41.184Z,39.05
2023-03-18T05:03:22.898Z,40.05
2023-03-18T05:05:50.639Z,37.45
2023-03-18T05:08:21.676Z,42.10
2023-03-18T05:10:50.623Z,41.73
2023-03-18T05:13:18.695Z,36.88
2023-03-18T05:15:46.215Z,32.17
2023-03-18T05:18:13.055Z,35.05
2023-03-18T05:20:41.826Z,36.83
2023-03-18T05:23:11.982Z,29.33
2023-03-18T05:25:49.662Z,31.10
2023-03-18T05:28:18.344Z,33.28
2023-03-18T05:30:53.791Z,32.78
2023-03-18T05:33:23.116Z,28.80
2023-03-18T05:35:55.856Z,32.10
2023-03-18T05:38:29.280Z,31.17
2023-03-18T05:40:56.650Z,29.83
2023-03-18T05:43:31.783Z,30.95
2023-03-18T05:45:59.558Z,33.47
2023-03-18T05:48:38.830Z,34.13
2023-03-18T05:51:06.925Z,32.65
2023-03-18T05:53:36.304Z,38.70
2023-03-18T05:56:18.329Z,36.20
2023-03-18T05:58:49.963Z,34.65
2023-03-18T06:01:27.379Z,37.47
2023-03-18T06:03:55.434Z,44.65
2023-03-18T06:06:22.383Z,50.30
2023-03-18T06:08:49.481Z,48.60
2023-03-18T06:11:17.102Z,54.42
2023-03-18T06:13:45.165Z,65.30
2023-03-18T06:16:12.756Z,66.25
2023-03-18T06:18:40.760Z,72.20
2023-03-18T06:21:10.045Z,72.05
2023-03-18T06:23:37.786Z,76.72
2023-03-18T06:26:05.304Z,72.97
2023-03-18T06:28:37.557Z,65.75
2023-03-18T06:31:10.829Z,64.50
2023-03-18T06:33:39.119Z,67.05
2023-03-18T06:36:08.910Z,63.83
2023-03-18T06:38:38.295Z,64.70
2023-03-18T06:41:05.418Z,62.85
2023-03-18T06:43:37.642Z,60.30
2023-03-18T06:46:05.421Z,61.00
2023-03-18T06:48:33.008Z,58.38
2023-03-18T06:51:00.377Z,55.08
2023-03-18T06:53:36.431Z,51.75
2023-03-18T06:56:06.164Z,53.13
2023-03-18T06:58:43.839Z,61.95
2023-03-18T07:01:12.631Z,49.88
2023-03-18T07:03:42.808Z,51.85
2023-03-18T07:06:12.059Z,51.05
2023-03-18T07:08:40.670Z,50.90
2023-03-18T07:11:08.144Z,49.20
2023-03-18T07:13:40.332Z,48.60
2023-03-18T07:16:13.816Z,48.65
2023-03-18T07:18:40.690Z,46.67
2023-03-18T07:21:07.616Z,49.92
2023-03-18T07:23:34.436Z,44.95
2023-03-18T07:26:01.835Z,61.80
2023-03-18T07:28:29.036Z,61.38
2023-03-18T07:30:56.586Z,69.38
2023-03-18T07:33:24.287Z,54.65
2023-03-18T07:35:51.570Z,61.30
2023-03-18T07:38:19.073Z,65.15
2023-03-18T07:40:46.454Z,56.88
2023-03-18T07:43:13.264Z,57.38
2023-03-18T07:45:41.220Z,67.78
2023-03-18T07:48:08.141Z,55.15
2023-03-18T07:50:35.156Z,52.97
2023-03-18T07:53:02.524Z,52.13
2023-03-18T07:55:30.364Z,52.88
2023-03-18T07:57:57.550Z,48.88
2023-03-18T08:00:25.751Z,48.05
2023-03-18T08:02:53.125Z,51.20
2023-03-18T08:05:20.006Z,49.22
2023-03-18T08:07:46.896Z,53.78
2023-03-18T08:10:15.124Z,44.53
2023-03-18T08:12:52.758Z,53.00
2023-03-18T08:15:22.463Z,46.38
2023-03-18T08:17:50.679Z,41.00
2023-03-18T08:20:18.171Z,42.70
2023-03-18T08:22:46.072Z,38.85
2023-03-18T08:25:14.490Z,43.70
2023-03-18T08:27:41.335Z,38.80
2023-03-18T08:30:10.156Z,41.13
2023-03-18T08:32:37.634Z,46.45
2023-03-18T08:35:05.317Z,40.75
2023-03-18T08:37:32.720Z,41.33
2023-03-18T08:40:00.386Z,38.47
2023-03-18T08:42:27.835Z,37.33
2023-03-18T08:44:55.096Z,41.78
2023-03-18T08:47:22.237Z,33.10
2023-03-18T08:49:52.383Z,36.75
2023-03-18T08:52:19.937Z,32.20
2023-03-18T08:54:47.918Z,35.30
2023-03-18T08:57:16.336Z,32.08
2023-03-18T08:59:43.225Z,29.67
2023-03-18T09:02:19.542Z,29.95
2023-03-18T09:04:48.241Z,29.55
2023-03-18T09:07:16.896Z,29.10
2023-03-18T09:09:46.568Z,31.17
2023-03-18T09:12:14.421Z,30.77
2023-03-18T09:14:42.693Z,29.05
2023-03-18T09:17:09.887Z,24.70
2023-03-18T09:19:37.527Z,21.20
2023-03-18T09:22:04.551Z,21.83
2023-03-18T09:24:31.761Z,24.38
2023-03-18T09:26:59.992Z,20.40
2023-03-18T09:29:27.768Z,17.33
2023-03-18T09:31:55.810Z,16.88
2023-03-18T09:34:23.118Z,23.63
2023-03-18T09:36:51.684Z,21.55
2023-03-18T09:39:22.271Z,15.93
2023-03-18T09:42:37.782Z,13.32
2023-03-18T09:45:16.605Z,13.65
2023-03-18T09:48:44.609Z,14.65
2023-03-18T09:51:41.896Z,13.27
2023-03-18T09:54:31.061Z,14.07
2023-03-18T09:56:58.528Z,12.48
2023-03-18T09:59:36.003Z,12.00
2023-03-18T10:02:06.548Z,14.80
2023-03-18T10:04:37.077Z,13.27
2023-03-18T10:07:13.244Z,11.07
2023-03-18T10:09:47.261Z,12.70
2023-03-18T10:12:24.071Z,13.48
2023-03-18T10:15:07.248Z,11.90
2023-03-18T10:18:24.150Z,10.15
2023-03-18T10:21:11.176Z,12.02
2023-03-18T10:23:49.788Z,11.75
2023-03-18T10:26:27.755Z,12.18
2023-03-18T10:29:03.965Z,10.85
2023-03-18T10:31:43.223Z,10.50
2023-03-18T10:34:14.752Z,10.30
2023-03-18T10:36:58.369Z,10.85
2023-03-18T10:39:30.639Z,9.10
2023-03-18T10:42:07.656Z,9.38
2023-03-18T10:44:39.981Z,9.40
2023-03-18T10:47:19.139Z,9.48
2023-03-18T10:49:57.554Z,9.88
2023-03-18T10:52:37.148Z,9.60
2023-03-18T10:55:16.240Z,11.15
2023-03-18T10:57:43.460Z,10.15
2023-03-18T11:00:34.543Z,9.07
2023-03-18T11:03:02.701Z,9.18
2023-03-18T11:05:37.879Z,9.43
2023-03-18T11:08:28.931Z,9.85
2023-03-18T11:10:55.892Z,10.25
2023-03-18T11:13:23.545Z,8.48
2023-03-18T11:15:52.490Z,8.10
2023-03-18T11:18:25.550Z,9.27
2023-03-18T11:21:03.418Z,9.65
2023-03-18T11:24:07.497Z,9.38
2023-03-18T11:27:18.470Z,6.90
2023-03-18T11:29:55.780Z,8.70
2023-03-18T11:32:34.198Z,7.90
2023-03-18T11:35:03.502Z,7.55
2023-03-18T11:37:40.138Z,8.15
2023-03-18T11:40:19.198Z,7.60
2023-03-18T11:42:48.990Z,8.57
2023-03-18T11:45:37.754Z,8.93
2023-03-18T11:48:09.869Z,9.05
2023-03-18T11:50:53.841Z,8.90
2023-03-18T11:53:35.243Z,6.65
2023-03-18T11:56:31.710Z,7.22
2023-03-18T11:59:25.063Z,7.10
2023-03-18T12:02:07.890Z,8.30
2023-03-18T12:04:53.815Z,7.82
2023-03-18T12:07:38.079Z,8.55
2023-03-18T12:10:24.515Z,7.53
2023-03-18T12:12:52.207Z,8.43
2023-03-18T12:15:34.789Z,8.15
2023-03-18T12:18:10.742Z,8.15
2023-03-18T12:20:50.657Z,8.23
2023-03-18T12:23:40.164Z,7.47
2023-03-18T12:26:25.364Z,7.95
2023-03-18T12:29:51.266Z,8.13
2023-03-18T12:32:18.143Z,8.70
2023-03-18T12:35:06.605Z,8.10
2023-03-18T12:37:47.874Z,9.80
2023-03-18T12:41:01.452Z,6.88
2023-03-18T12:43:40.509Z,10.02
2023-03-18T12:46:31.852Z,7.75
2023-03-18T12:49:25.386Z,10.00
2023-03-18T12:52:08.326Z,11.30
2023-03-18T12:55:07.667Z,8.57
2023-03-18T13:00:52.386Z,7.57
2023-03-18T13:03:38.826Z,6.43
2023-03-18T13:06:15.757Z,7.47
2023-03-18T13:08:55.226Z,8.27
2023-03-18T13:14:14.884Z,7.78
2023-03-18T13:16:42.546Z,8.73
2023-03-18T13:19:11.915Z,8.48
2023-03-18T13:21:55.450Z,5.97
2023-03-18T13:24:44.781Z,8.02
2023-03-18T13:27:37.969Z,8.65
2023-03-18T13:30:11.033Z,7.07
2023-03-18T13:32:57.005Z,7.03
2023-03-18T13:35:39.402Z,6.55
2023-03-18T13:38:11.999Z,7.82
2023-03-18T13:40:45.301Z,6.72
2023-03-18T13:43:16.520Z,6.95
2023-03-18T13:45:46.792Z,6.82
2023-03-18T13:48:18.466Z,8.75
2023-03-18T13:50:48.697Z,7.05
2023-03-18T13:53:25.474Z,8.45
2023-03-18T13:55:59.647Z,6.63
2023-03-18T13:58:36.256Z,6.80
2023-03-18T14:01:16.132Z,7.25
2023-03-18T14:03:46.613Z,6.80
2023-03-18T14:06:16.664Z,7.07
2023-03-18T14:08:44.055Z,7.57
2023-03-18T14:11:17.070Z,7.30
2023-03-18T14:13:47.608Z,7.63
2023-03-18T14:16:30.943Z,6.47
2023-03-18T14:19:06.752Z,5.72
2023-03-18T14:21:34.307Z,6.53
2023-03-18T14:24:20.994Z,6.38
2023-03-18T14:27:08.726Z,6.75
2023-03-18T14:29:45.666Z,8.40
2023-03-18T14:32:34.299Z,6.38
2023-03-18T14:35:28.329Z,8.90
2023-03-18T14:38:26.062Z,5.53
2023-03-18T14:40:56.047Z,5.97
2023-03-18T14:43:34.509Z,7.32
2023-03-18T14:46:06.132Z,5.53
2023-03-18T14:48:34.507Z,7.88
2023-03-18T14:51:05.188Z,9.50
2023-03-18T14:53:37.800Z,6.38
2023-03-18T14:56:05.703Z,7.85
2023-03-18T14:58:34.451Z,7.05
2023-03-18T15:01:09.988Z,7.20
2023-03-18T15:03:42.534Z,8.02
2023-03-18T15:06:20.593Z,8.60
2023-03-18T15:08:56.785Z,7.78
2023-03-18T15:11:24.262Z,7.38
2023-03-18T15:13:56.860Z,7.70
2023-03-18T15:16:25.380Z,6.35
2023-03-18T15:18:55.038Z,8.75
2023-03-18T15:21:30.792Z,7.18
2023-03-18T15:24:03.534Z,7.28
2023-03-18T15:26:35.227Z,8.50
2023-03-18T15:29:24.217Z,7.95
2023-03-18T15:31:52.947Z,8.73
2023-03-18T15:34:30.873Z,8.98
2023-03-18T15:37:03.517Z,8.48
2023-03-18T15:39:40.939Z,10.20
2023-03-18T15:42:17.309Z,17.10
2023-03-18T15:44:46.576Z,9.13
2023-03-18T15:47:17.230Z,9.30
2023-03-18T15:49:53.321Z,9.45
2023-03-18T15:52:31.594Z,7.75
2023-03-18T15:54:58.810Z,6.55
2023-03-18T15:57:35.411Z,6.32
2023-03-18T16:00:09.940Z,8.55
2023-03-18T16:02:40.636Z,6.50
2023-03-18T16:05:18.280Z,8.43
2023-03-18T16:07:46.850Z,6.70
2023-03-18T16:10:22.749Z,6.63
2023-03-18T16:12:55.284Z,6.40
2023-03-18T16:15:25.085Z,14.82
2023-03-18T16:17:54.121Z,6.97
2023-03-18T16:20:24.245Z,7.63
2023-03-18T16:22:52.058Z,7.68
2023-03-18T16:25:19.489Z,15.05
2023-03-18T16:27:48.918Z,23.77
2023-03-18T16:30:20.231Z,19.50
2023-03-18T16:32:47.865Z,12.55
2023-03-18T16:35:16.487Z,16.17
2023-03-18T16:37:48.887Z,13.70
2023-03-18T16:40:24.963Z,11.93
2023-03-18T16:42:53.238Z,11.57
2023-03-18T16:45:25.549Z,9.38
2023-03-18T16:47:57.550Z,11.13
2023-03-18T16:50:30.803Z,10.00
2023-03-18T16:52:58.875Z,9.75
2023-03-18T16:55:26.885Z,13.50
2023-03-18T16:58:02.542Z,14.35
2023-03-18T17:00:32.230Z,12.50
2023-03-18T17:03:00.537Z,12.13
2023-03-18T17:05:28.545Z,10.93
2023-03-18T17:07:55.939Z,13.13
2023-03-18T17:10:26.226Z,11.07
2023-03-18T17:12:57.701Z,17.25
2023-03-18T17:15:29.610Z,12.75
2023-03-18T17:17:59.772Z,11.52
2023-03-18T17:20:30.508Z,14.63
2023-03-18T17:22:58.339Z,13.82
2023-03-18T17:25:28.152Z,12.80
2023-03-18T17:28:01.389Z,12.18
2023-03-18T17:30:40.061Z,14.90
2023-03-18T17:33:22.354Z,13.60
2023-03-18T17:35:49.422Z,12.48
2023-03-18T17:38:16.584Z,12.80
2023-03-18T17:40:44.444Z,14.70
2023-03-18T17:43:19.568Z,15.27
2023-03-18T17:45:47.809Z,12.98
2023-03-18T17:48:22.063Z,12.35
2023-03-18T17:50:51.669Z,13.77
2023-03-18T17:55:58.063Z,16.13
2023-03-18T17:58:31.402Z,17.80
2023-03-18T18:01:20.398Z,20.48
2023-03-18T18:03:48.000Z,20.40
2023-03-18T18:06:23.720Z,11.90
2023-03-18T18:08:50.901Z,16.10
2023-03-18T18:11:23.941Z,16.33
2023-03-18T18:13:53.677Z,20.08
2023-03-18T18:16:21.625Z,18.58
2023-03-18T18:18:50.017Z,21.42
2023-03-18T18:21:20.527Z,18.30
2023-03-18T18:23:48.772Z,22.17
2023-03-18T18:26:20.434Z,23.77
2023-03-18T18:28:49.937Z,22.63
2023-03-18T18:33:46.049Z,20.25
2023-03-18T18:36:14.297Z,19.10
2023-03-18T18:38:41.576Z,19.88
2023-03-18T18:41:09.702Z,19.35
2023-03-18T18:43:36.850Z,19.85
2023-03-18T18:46:04.299Z,19.75
2023-03-18T18:48:39.193Z,22.88
2023-03-18T18:51:06.360Z,19.92
2023-03-18T18:53:38.099Z,21.70
2023-03-18T18:56:20.903Z,19.50
2023-03-18T18:58:48.841Z,23.63
2023-03-18T19:01:16.099Z,23.08
2023-03-18T19:03:43.703Z,23.42
2023-03-18T19:06:27.262Z,20.27
2023-03-18T19:08:57.032Z,18.73
2023-03-18T19:11:25.921Z,18.58
2023-03-18T19:14:14.762Z,18.58
2023-03-18T19:16:42.549Z,21.63
2023-03-18T19:19:13.728Z,25.38
2023-03-18T19:21:41.231Z,24.13
2023-03-18T19:24:28.080Z,24.83
2023-03-18T19:27:04.279Z,26.40
2023-03-18T19:29:32.757Z,22.20
2023-03-18T19:32:01.470Z,22.33
2023-03-18T19:34:32.076Z,22.02
2023-03-18T19:37:02.704Z,23.00
2023-03-18T19:39:30.203Z,26.48
2023-03-18T19:41:57.310Z,29.60
2023-03-18T19:44:26.520Z,25.67
2023-03-18T19:46:56.409Z,29.98
2023-03-18T19:49:26.480Z,34.30
2023-03-18T19:51:54.152Z,30.95
2023-03-18T19:54:28.304Z,28.00
2023-03-18T19:56:57.228Z,26.10
2023-03-18T19:59:33.584Z,25.92
2023-03-18T20:02:05.140Z,26.17
2023-03-18T20:04:32.090Z,23.08
2023-03-18T20:06:59.006Z,23.85
2023-03-18T20:09:26.180Z,25.27
2023-03-18T20:12:04.402Z,24.45
2023-03-18T20:14:38.297Z,27.35
2023-03-18T20:17:45.059Z,34.42
2023-03-18T20:20:24.112Z,32.22
2023-03-18T20:22:54.088Z,35.25
2023-03-18T20:25:30.642Z,32.47
2023-03-18T20:27:58.365Z,27.65
2023-03-18T20:30:27.829Z,23.67
2023-03-18T20:32:55.584Z,23.95
2023-03-18T20:35:27.126Z,23.17
2023-03-18T20:37:59.249Z,19.70
2023-03-18T20:40:28.787Z,22.42
2023-03-18T20:45:24.683Z,19.08
2023-03-18T20:47:51.758Z,21.08
2023-03-18T20:50:29.898Z,21.25
2023-03-18T20:52:58.712Z,19.00
2023-03-18T20:55:27.122Z,17.33
2023-03-18T20:57:54.570Z,22.13
2023-03-18T21:00:27.388Z,18.88
2023-03-18T21:02:57.575Z,20.00
2023-03-18T21:05:26.288Z,16.20
2023-03-18T21:07:53.643Z,24.17
2023-03-18T21:10:24.009Z,22.23
2023-03-18T21:12:51.708Z,24.33
2023-03-18T21:15:20.590Z,42.83
2023-03-18T21:17:47.896Z,39.97
2023-03-18T21:20:22.960Z,42.95
2023-03-18T21:22:51.397Z,37.00
2023-03-18T21:25:24.623Z,42.15
2023-03-18T21:27:52.603Z,44.60
2023-03-18T21:30:22.132Z,36.33
2023-03-18T21:35:21.803Z,30.77
2023-03-18T21:37:49.364Z,32.53
2023-03-18T21:40:19.305Z,25.60
2023-03-18T21:42:46.854Z,28.90
2023-03-18T21:45:16.840Z,25.98
2023-03-18T21:47:43.849Z,27.52
2023-03-18T21:50:26.146Z,29.95
2023-03-18T21:52:54.303Z,26.83
2023-03-18T21:55:22.059Z,28.90
2023-03-18T21:57:49.508Z,29.98
2023-03-18T22:00:20.230Z,27.42
2023-03-18T22:02:47.850Z,30.67
2023-03-18T22:05:21.927Z,30.88
2023-03-18T22:07:50.870Z,31.80
2023-03-18T22:10:23.318Z,32.88
2023-03-18T22:12:50.678Z,33.85
2023-03-18T22:15:36.495Z,35.22
2023-03-18T22:18:04.513Z,40.60
2023-03-18T22:20:32.869Z,36.95
2023-03-18T22:22:59.885Z,39.10
2023-03-18T22:25:33.722Z,42.78
2023-03-18T22:28:01.108Z,42.13
2023-03-18T22:30:30.842Z,42.60
2023-03-18T22:32:59.950Z,46.38
2023-03-18T22:35:29.296Z,44.78
2023-03-18T22:37:56.889Z,44.75
2023-03-18T22:40:26.329Z,49.78
2023-03-18T22:42:57.265Z,45.85
2023-03-18T22:45:33.165Z,45.75
2023-03-18T22:48:04.338Z,48.13
2023-03-18T22:50:33.893Z,44.88
2023-03-18T22:53:19.230Z,40.78
2023-03-18T22:55:47.012Z,44.55
2023-03-18T22:58:20.430Z,42.67
2023-03-18T23:00:48.288Z,40.40
2023-03-18T23:03:18.478Z,41.58
2023-03-18T23:05:47.058Z,38.70
2023-03-18T23:08:14.525Z,40.67
2023-03-18T23:10:42.808Z,42.60
2023-03-18T23:13:28.805Z,44.20
2023-03-18T23:15:56.939Z,35.90
2023-03-18T23:18:24.209Z,35.22
2023-03-18T23:20:52.363Z,38.30
2023-03-18T23:23:21.664Z,38.55
2023-03-18T23:28:17.292Z,34.05
2023-03-18T23:30:48.259Z,37.40
2023-03-18T23:33:15.920Z,46.15
2023-03-18T23:35:44.186Z,40.17
2023-03-18T23:38:11.607Z,36.57
2023-03-18T23:40:38.722Z,33.83
2023-03-18T23:43:08.986Z,34.72
2023-03-18T23:45:39.744Z,33.17
2023-03-18T23:48:07.338Z,35.70
2023-03-18T23:50:34.470Z,32.63
2023-03-18T23:53:01.881Z,30.80
2023-03-18T23:55:34.594Z,32.42
2023-03-18T23:58:03.186Z,34.42
